»·PEaware :: ASA76 KTUS-KSJC

ASA76 :: KTUS-KSJC

FLIGHT INFORMATION

Flight Status: Arrived
Operator:
Alaska Airlines
More flights by this operator :: More flights under this callsign
Pilot: Skye D. (10623)
Aircraft: BOEING 737-800
(B738)
More flights by this aircraft type
Origin: KTUS Tucson Intl
United States
Destination: KSJC Mineta San Jose Intl
United States
More flights between these airports :: More routes between these airports
Route: BURRO4 GBN J104 CULTS J212 DECAS J65 PMD J6 AVE TROXX SILCN4
File this flight plan on PilotEdge
Remarks:
Altitude:
(Current/Filed)
38,000ft
Speed:
(Current/Filed)
450kts
Departed: 12-Feb-18 11:10 AM
Arrived: 12-Feb-18 01:18 PM
Distance/Time
Traveled:
626nm/2:08
Distance/Time
To Go:
Arrived

Flight Plot

Page will automatically refresh every two minutes.

Flight plan parsing failed; only flown route is shown


Map Options




Map Legend


Flown Route
Filed Route
Departure Airport
Arrival Airport
Navaid (VOR, NDB)
Fix

Horizontal Profiles

Position Reports

Time Latitude Longitude Heading Altitude Ground
Speed
12-Feb-18 10:56 32.119960 -110.938270 46 2652ft 0kts
12-Feb-18 10:57 32.119960 -110.938270 46 2652ft 0kts
12-Feb-18 10:58 32.119960 -110.938270 46 2652ft 0kts
12-Feb-18 10:59 32.119960 -110.938270 46 2652ft 0kts
12-Feb-18 11:00 32.119960 -110.938270 46 2652ft 0kts
12-Feb-18 11:01 32.119960 -110.938270 46 2652ft 0kts
12-Feb-18 11:02 32.119960 -110.938270 46 2652ft 0kts
12-Feb-18 11:03 32.119960 -110.938270 46 2652ft 0kts
12-Feb-18 11:04 32.119960 -110.938270 46 2652ft 0kts
12-Feb-18 11:05 32.119960 -110.938270 46 2652ft 0kts
12-Feb-18 11:06 32.119960 -110.938270 46 2652ft 0kts
12-Feb-18 11:07 32.119904 -110.938374 60 2652ft 1kts
12-Feb-18 11:08 32.119504 -110.938536 0 2652ft 2kts
12-Feb-18 11:09 32.119029 -110.938353 321 2652ft 2kts
12-Feb-18 11:10 32.118960 -110.938280 314 2652ft 0kts
12-Feb-18 11:11 32.120013 -110.939670 309 2652ft 7kts
12-Feb-18 11:12 32.119995 -110.940318 229 2652ft 0kts
12-Feb-18 11:13 32.119981 -110.940338 227 2652ft 2kts
12-Feb-18 11:14 32.121417 -110.943276 315 2652ft 22kts
12-Feb-18 11:15 32.124101 -110.946354 301 2652ft 5kts
12-Feb-18 11:16 32.123847 -110.947055 219 2652ft 6kts
12-Feb-18 11:17 32.121739 -110.946076 137 2652ft 54kts
12-Feb-18 11:18 32.094539 -110.914294 142 4833ft 182kts
12-Feb-18 11:19 32.060282 -110.873972 146 8250ft 192kts
12-Feb-18 11:20 32.012192 -110.896119 219 10132ft 260kts
12-Feb-18 11:21 31.972200 -110.966746 274 12612ft 334kts
12-Feb-18 11:22 32.014744 -111.062229 293 16614ft 350kts
12-Feb-18 11:23 32.061942 -111.161235 293 20104ft 361kts
12-Feb-18 11:24 32.125790 -111.255400 303 23210ft 382kts
12-Feb-18 11:25 32.195796 -111.348626 303 25939ft 395kts
12-Feb-18 11:26 32.268805 -111.444649 302 28561ft 403kts
12-Feb-18 11:27 32.330514 -111.549619 295 31081ft 399kts
12-Feb-18 11:28 32.390685 -111.654613 293 34063ft 386kts
12-Feb-18 11:29 32.448347 -111.756825 293 36825ft 376kts
12-Feb-18 11:30 32.505635 -111.859668 293 37852ft 384kts
12-Feb-18 11:31 32.563187 -111.962852 293 37974ft 382kts
12-Feb-18 11:32 32.609693 -112.046519 293 38027ft 387kts
12-Feb-18 11:33 32.659914 -112.137700 293 38058ft 410kts
12-Feb-18 11:34 32.718738 -112.243759 293 38023ft 412kts
12-Feb-18 11:35 32.775612 -112.346454 293 37960ft 409kts
12-Feb-18 11:36 32.829107 -112.443579 293 37946ft 408kts
12-Feb-18 11:37 32.882736 -112.541261 293 37945ft 409kts
12-Feb-18 11:38 32.943722 -112.652188 293 37945ft 409kts
12-Feb-18 11:39 33.011019 -112.744777 300 37948ft 419kts
12-Feb-18 11:40 33.082464 -112.841689 301 37945ft 420kts
12-Feb-18 11:41 33.152045 -112.933655 302 37945ft 421kts
12-Feb-18 11:42 33.226960 -113.031996 301 37968ft 420kts
12-Feb-18 11:43 33.302500 -113.132681 301 37972ft 420kts
12-Feb-18 11:44 33.377524 -113.233268 301 37972ft 420kts
12-Feb-18 11:45 33.453117 -113.334822 302 37972ft 420kts
12-Feb-18 11:46 33.528517 -113.436229 302 37972ft 420kts
12-Feb-18 11:47 33.591470 -113.539643 277 37944ft 391kts
12-Feb-18 11:48 33.611696 -113.661921 275 37980ft 391kts
12-Feb-18 11:49 33.634694 -113.783678 276 37910ft 390kts
12-Feb-18 11:50 33.655712 -113.896329 276 37901ft 390kts
12-Feb-18 11:51 33.677537 -114.016263 276 37899ft 390kts
12-Feb-18 11:52 33.696854 -114.122866 276 37899ft 390kts
12-Feb-18 11:53 33.716145 -114.229622 276 37899ft 390kts
12-Feb-18 11:54 33.736331 -114.341766 276 37899ft 391kts
12-Feb-18 11:55 33.759235 -114.469238 276 37899ft 392kts
12-Feb-18 11:56 33.774374 -114.594647 269 37902ft 387kts
12-Feb-18 11:57 33.781987 -114.713073 269 37900ft 387kts
12-Feb-18 11:58 33.789660 -114.836382 269 37898ft 384kts
12-Feb-18 11:59 33.796685 -114.960972 269 37899ft 384kts
12-Feb-18 12:00 33.803386 -115.084604 269 37899ft 384kts
12-Feb-18 12:01 33.810137 -115.210813 269 37899ft 384kts
12-Feb-18 12:02 33.816513 -115.331056 269 37899ft 386kts
12-Feb-18 12:03 33.824780 -115.452473 281 37851ft 393kts
12-Feb-18 12:04 33.855972 -115.554311 283 37861ft 397kts
12-Feb-18 12:05 33.885771 -115.651194 283 37846ft 397kts
12-Feb-18 12:06 33.915348 -115.744248 284 37845ft 397kts
12-Feb-18 12:07 33.945354 -115.837876 284 37846ft 402kts
12-Feb-18 12:08 33.977441 -115.938513 284 37875ft 402kts
12-Feb-18 12:09 34.010553 -116.042962 284 37910ft 402kts
12-Feb-18 12:10 34.043019 -116.145852 284 37916ft 402kts
12-Feb-18 12:11 34.072518 -116.239645 284 37917ft 401kts
12-Feb-18 12:12 34.104070 -116.340252 285 37918ft 406kts
12-Feb-18 12:13 34.140266 -116.452710 285 37918ft 407kts
12-Feb-18 12:14 34.177544 -116.570563 285 37904ft 406kts
12-Feb-18 12:15 34.206973 -116.665329 285 37886ft 406kts
12-Feb-18 12:16 34.238665 -116.766992 285 37881ft 406kts
12-Feb-18 12:17 34.279042 -116.897852 285 37883ft 413kts
12-Feb-18 12:18 34.308281 -116.993446 285 37881ft 413kts
12-Feb-18 12:19 34.343602 -117.108778 286 37880ft 412kts
12-Feb-18 12:20 34.378665 -117.223330 286 37887ft 412kts
12-Feb-18 12:21 34.415426 -117.344330 286 37890ft 413kts
12-Feb-18 12:22 34.451815 -117.464719 286 37890ft 413kts
12-Feb-18 12:23 34.488206 -117.585590 286 37900ft 412kts
12-Feb-18 12:24 34.522010 -117.697994 286 37923ft 413kts
12-Feb-18 12:25 34.556920 -117.813660 286 37925ft 411kts
12-Feb-18 12:26 34.590145 -117.925003 286 37890ft 411kts
12-Feb-18 12:27 34.621677 -118.031328 286 37875ft 410kts
12-Feb-18 12:28 34.676338 -118.126170 304 37886ft 422kts
12-Feb-18 12:29 34.736158 -118.214525 304 37880ft 422kts
12-Feb-18 12:30 34.797646 -118.304533 305 37881ft 422kts
12-Feb-18 12:31 34.858959 -118.393613 305 37883ft 422kts
12-Feb-18 12:32 34.919511 -118.481641 305 37888ft 422kts
12-Feb-18 12:33 34.981248 -118.571535 305 37892ft 422kts
12-Feb-18 12:34 35.035023 -118.668400 296 37898ft 417kts
12-Feb-18 12:35 35.081481 -118.764977 297 37890ft 417kts
12-Feb-18 12:36 35.127424 -118.860565 297 37892ft 419kts
12-Feb-18 12:37 35.177879 -118.965494 297 37928ft 419kts
12-Feb-18 12:38 35.226414 -119.068393 296 37934ft 419kts
12-Feb-18 12:39 35.274474 -119.171326 296 37935ft 420kts
12-Feb-18 12:40 35.323472 -119.276667 297 37936ft 420kts
12-Feb-18 12:41 35.373503 -119.384468 297 37935ft 419kts
12-Feb-18 12:42 35.425290 -119.494740 297 37936ft 419kts
12-Feb-18 12:43 35.474173 -119.601413 297 37941ft 419kts
12-Feb-18 12:44 35.521597 -119.705265 297 37944ft 420kts
12-Feb-18 12:45 35.569425 -119.809246 297 37945ft 420kts
12-Feb-18 12:46 35.617543 -119.914295 297 37945ft 419kts
12-Feb-18 12:47 35.662318 -120.017484 294 37944ft 419kts
12-Feb-18 12:48 35.703457 -120.128236 293 37945ft 419kts
12-Feb-18 12:49 35.743212 -120.237965 293 37945ft 419kts
12-Feb-18 12:50 35.780282 -120.339249 294 37148ft 420kts
12-Feb-18 12:51 35.819655 -120.444791 295 36016ft 407kts
12-Feb-18 12:52 35.853607 -120.537211 294 35095ft 405kts
12-Feb-18 12:53 35.886983 -120.627911 295 34243ft 408kts
12-Feb-18 12:54 35.922089 -120.722715 294 33408ft 408kts
12-Feb-18 12:55 35.957870 -120.823166 294 32631ft 408kts
12-Feb-18 12:56 35.992154 -120.922863 294 32050ft 389kts
12-Feb-18 12:57 36.042190 -121.010350 316 30302ft 391kts
12-Feb-18 12:58 36.106841 -121.069585 322 28452ft 371kts
12-Feb-18 12:59 36.173780 -121.123464 323 26642ft 351kts
12-Feb-18 13:00 36.244744 -121.178948 323 24821ft 337kts
12-Feb-18 13:01 36.310838 -121.233805 323 23167ft 341kts
12-Feb-18 13:02 36.373431 -121.289197 323 21645ft 325kts
12-Feb-18 13:03 36.429502 -121.341615 322 20343ft 318kts
12-Feb-18 13:04 36.484652 -121.394131 322 19259ft 315kts
12-Feb-18 13:05 36.546415 -121.431117 339 17937ft 316kts
12-Feb-18 13:06 36.611746 -121.457487 339 16583ft 312kts
12-Feb-18 13:07 36.673538 -121.482725 339 15311ft 309kts
12-Feb-18 13:08 36.734793 -121.508140 340 14045ft 310kts
12-Feb-18 13:09 36.798111 -121.537183 340 12622ft 295kts
12-Feb-18 13:10 36.854643 -121.565959 340 10937ft 278kts
12-Feb-18 13:11 36.908959 -121.592264 341 9000ft 276kts
12-Feb-18 13:12 36.965453 -121.618538 341 7357ft 259kts
12-Feb-18 13:13 37.020479 -121.643255 341 5710ft 247kts
12-Feb-18 13:14 37.071735 -121.665782 340 4721ft 226kts
12-Feb-18 13:15 37.120195 -121.687019 340 4140ft 224kts
12-Feb-18 13:16 37.164595 -121.713632 319 4023ft 224kts
12-Feb-18 13:17 37.200441 -121.752596 320 3966ft 191kts
12-Feb-18 13:18 37.227042 -121.781564 319 3496ft 179kts
12-Feb-18 13:19 37.255711 -121.812885 319 2742ft 165kts
12-Feb-18 13:20 37.279957 -121.839377 319 2089ft 148kts
12-Feb-18 13:21 37.299982 -121.861263 319 1570ft 131kts
12-Feb-18 13:22 37.317477 -121.880235 321 1113ft 131kts
12-Feb-18 13:23 37.334944 -121.899693 320 661ft 139kts
12-Feb-18 13:24 37.352039 -121.918261 319 202ft 134kts
12-Feb-18 13:25 37.365889 -121.933348 319 71ft 34kts
12-Feb-18 13:26 37.368675 -121.932305 43 71ft 21kts
12-Feb-18 13:27 37.368368 -121.929680 44 71ft 9kts
12-Feb-18 13:28 37.368554 -121.929427 49 71ft 0kts
12-Feb-18 13:29 37.368554 -121.929427 49 71ft 0kts

Navigation Log

Ident Type
Flight plan parsing failed, navigation log unavailable